Peerless, Montana
Current Conditions -  °F | °C
As of 3:53 PM on Saturday 25 Oct 2014 (Local Time) from KOLF Reporting Station
Clear Clear  
Wind Chill: 67°   Ceiling: Unl
Heat Index: 67°   Visibility: 10mi
Dew Point: 34°   Wind: 16mph
Humidity: 30%   Direction: 110°ESE
Pressure: 29.89"   Gusts: 23mph
Location:  48.79°N, 105.84°W
Report Text: KOLF 252153Z AUTO 11014G20KT 10SM CLR 19/01 A2989 RMK AO2 SLP124 T01940011
Loading
Personal Weather Stations






























Interactive Weather Map
Tropical Storm Tracking
New forecast layout! Learn more

10-Day Weather Forecast

Advertisements
Track Severe Weather on mobile